Time;durP1;ratioP1;P1;durP2;ratioP2;P2;SDS_P1;SDS_P2;PMS_P1;PMS_P2;Temp;Humidity;BMP_temperature;BMP_pressure;BME280_temperature;BME280_humidity;BME280_pressure;Samples;Min_cycle;Max_cycle;Signal;HPM_P1;HPM_P2
2023/06/01 15:00:52;;;;;;;;;10.50;10.50;;;;;;;;5104012;27;13406;-72
2023/06/01 15:03:17;;;;;;;;;11.50;10.75;;;;;;;;5107834;28;10072;-69
2023/06/01 15:05:43;;;;;;;;;9.25;7.50;;;;;;;;5110920;27;9890;-71
2023/06/01 15:08:08;;;;;;;;;10.00;10.00;;;;;;;;5113442;28;8823;-72
2023/06/01 15:10:33;;;;;;;;;8.50;6.00;;;;;;;;5107251;28;8914;-72
2023/06/01 15:12:59;;;;;;;;;10.00;9.00;;;;;;;;5106314;28;8783;-69
2023/06/01 15:15:24;;;;;;;;;9.50;8.75;;;;;;;;5106127;28;8811;-72
2023/06/01 15:17:49;;;;;;;;;7.50;7.50;;;;;;;;5106174;28;8816;-71
2023/06/01 15:20:15;;;;;;;;;8.25;5.75;;;;;;;;5106102;28;8930;-72
2023/06/01 15:22:40;;;;;;;;;4.75;3.75;;;;;;;;5106143;28;8776;-72
2023/06/01 15:25:06;;;;;;;;;8.00;6.00;;;;;;;;5117779;27;8781;-71
2023/06/01 15:27:31;;;;;;;;;7.50;5.00;;;;;;;;5126559;27;8892;-71
2023/06/01 15:29:57;;;;;;;;;5.00;5.00;;;;;;;;5127692;27;9962;-71
2023/06/01 15:32:22;;;;;;;;;2.25;1.50;;;;;;;;5109210;28;8869;-71
2023/06/01 15:34:47;;;;;;;;;4.50;4.50;;;;;;;;5114410;27;8832;-72
2023/06/01 15:37:12;;;;;;;;;6.00;5.00;;;;;;;;5116230;28;8801;-72
2023/06/01 15:39:38;;;;;;;;;5.00;5.00;;;;;;;;5117661;27;8862;-71
2023/06/01 15:42:04;;;;;;;;;6.75;6.00;;;;;;;;5109816;28;8788;-70
2023/06/01 15:44:30;;;;;;;;;5.00;4.00;;;;;;;;5106691;28;8772;-72
2023/06/01 15:46:55;;;;;;;;;6.75;5.25;;;;;;;;5098326;28;9692;-73
2023/06/01 15:49:20;;;;;;;;;6.00;6.00;;;;;;;;5105740;28;8822;-72
2023/06/01 15:51:46;;;;;;;;;7.00;5.25;;;;;;;;5106952;28;8810;-73
2023/06/01 15:54:11;;;;;;;;;4.00;4.00;;;;;;;;5105478;28;8830;-73
2023/06/01 15:56:36;;;;;;;;;5.00;5.00;;;;;;;;5105461;28;8884;-75
2023/06/01 15:59:01;;;;;;;;;3.00;3.00;;;;;;;;5109100;28;8877;-74
2023/06/01 16:01:27;;;;;;;;;11.00;8.50;;;;;;;;5106200;28;8788;-73
2023/06/01 16:03:52;;;;;;;;;9.67;9.67;;;;;;;;5105196;28;8892;-74
2023/06/01 16:06:17;;;;;;;;;9.00;8.00;;;;;;;;5106767;28;8872;-75
2023/06/01 16:08:42;;;;;;;;;9.67;9.00;;;;;;;;5104801;28;8812;-74
2023/06/01 16:11:08;;;;;;;;;6.33;6.33;;;;;;;;5098782;28;8830;-74
2023/06/01 16:13:33;;;;;;;;;5.33;4.67;;;;;;;;5090086;28;8784;-74
2023/06/01 16:15:59;;;;;;;;;6.00;5.00;;;;;;;;5092669;28;8816;-75
2023/06/01 16:18:24;;;;;;;;;4.00;4.00;;;;;;;;5093160;28;8796;-75
2023/06/01 16:20:50;;;;;;;;;4.33;4.33;;;;;;;;5093330;28;8882;-74
2023/06/01 16:23:15;;;;;;;;;6.00;6.00;;;;;;;;5091903;28;8802;-74
2023/06/01 16:25:40;;;;;;;;;3.33;3.33;;;;;;;;5092999;28;9515;-74
2023/06/01 16:28:06;;;;;;;;;7.00;5.00;;;;;;;;5105663;28;8789;-72
2023/06/01 16:30:31;;;;;;;;;5.00;5.00;;;;;;;;5113092;28;8793;-73
2023/06/01 16:32:56;;;;;;;;;4.33;4.33;;;;;;;;5112091;28;8813;-71
2023/06/01 16:35:21;;;;;;;;;3.00;3.00;;;;;;;;5113465;28;8877;-72
2023/06/01 16:37:47;;;;;;;;;4.67;4.00;;;;;;;;5101502;28;8883;-72
2023/06/01 16:40:12;;;;;;;;;6.00;4.00;;;;;;;;5092889;28;8846;-72
2023/06/01 16:42:37;;;;;;;;;4.00;4.00;;;;;;;;5092836;28;8927;-76
2023/06/01 16:45:03;;;;;;;;;3.33;3.00;;;;;;;;5098196;28;9515;-76
2023/06/01 16:47:28;;;;;;;;;5.67;4.67;;;;;;;;5101526;28;8811;-76
2023/06/01 16:49:53;;;;;;;;;5.50;5.50;;;;;;;;5103064;28;8804;-75
2023/06/01 16:52:18;;;;;;;;;3.00;3.00;;;;;;;;5101218;28;8788;-73
2023/06/01 16:54:44;;;;;;;;;4.00;3.00;;;;;;;;5102001;28;9492;-74
2023/06/01 16:57:10;;;;;;;;;5.00;3.33;;;;;;;;5103852;28;8790;-74
2023/06/01 16:59:36;;;;;;;;;7.67;5.00;;;;;;;;5102216;28;8839;-74
2023/06/01 17:02:01;;;;;;;;;9.67;6.00;;;;;;;;5096871;28;8815;-73
2023/06/01 17:04:27;;;;;;;;;5.33;4.67;;;;;;;;5092536;28;8796;-78
2023/06/01 17:06:52;;;;;;;;;5.00;5.00;;;;;;;;5092481;28;8799;-70
2023/06/01 17:09:17;;;;;;;;;3.67;3.33;;;;;;;;5099073;28;8832;-75
2023/06/01 17:11:43;;;;;;;;;37.00;30.25;;;;;;;;5098154;28;8958;-78
2023/06/01 17:14:08;;;;;;;;;8.00;6.50;;;;;;;;5097065;28;8811;-83
2023/06/01 17:16:33;;;;;;;;;5.00;5.00;;;;;;;;5091601;28;8804;-82
2023/06/01 17:18:59;;;;;;;;;6.25;4.00;;;;;;;;5091668;28;8804;-82
2023/06/01 17:21:24;;;;;;;;;6.75;5.75;;;;;;;;5091657;28;8800;-80
2023/06/01 17:23:49;;;;;;;;;6.25;5.00;;;;;;;;5091963;28;8896;-74
2023/06/01 17:26:15;;;;;;;;;7.25;7.25;;;;;;;;5089632;28;8815;-77
2023/06/01 17:28:41;;;;;;;;;11.50;6.50;;;;;;;;5090018;28;8816;-69
2023/06/01 17:31:06;;;;;;;;;5.00;5.00;;;;;;;;5091430;28;8804;-68
2023/06/01 17:33:31;;;;;;;;;5.00;5.00;;;;;;;;5091253;28;8826;-69
2023/06/01 17:35:56;;;;;;;;;6.00;4.75;;;;;;;;5091297;28;8796;-73
2023/06/01 17:38:22;;;;;;;;;5.75;5.00;;;;;;;;5089913;28;8810;-75
2023/06/01 17:40:47;;;;;;;;;7.00;7.00;;;;;;;;5090962;28;8822;-73
2023/06/01 17:43:13;;;;;;;;;6.00;5.50;;;;;;;;5091460;28;8796;-71
2023/06/01 17:45:38;;;;;;;;;4.50;4.50;;;;;;;;5091205;28;8819;-70
2023/06/01 17:48:04;;;;;;;;;5.00;5.00;;;;;;;;5089795;28;8788;-72
2023/06/01 17:50:29;;;;;;;;;6.25;4.75;;;;;;;;5091354;28;8900;-71
2023/06/01 17:52:54;;;;;;;;;9.75;7.25;;;;;;;;5091224;28;8796;-72
2023/06/01 17:55:19;;;;;;;;;38.00;36.00;;;;;;;;5090892;28;8800;-71
2023/06/01 17:57:45;;;;;;;;;11.00;9.00;;;;;;;;5093826;28;8940;-71
2023/06/01 18:00:10;;;;;;;;;7.00;5.25;;;;;;;;5091244;28;9605;-71
2023/06/01 18:02:36;;;;;;;;;19.50;19.00;;;;;;;;5090759;28;8911;-70
2023/06/01 18:05:01;;;;;;;;;31.00;31.00;;;;;;;;5091062;28;8808;-73
2023/06/01 18:07:28;;;;;;;;;9.75;9.00;;;;;;;;5089404;28;10108;-73
2023/06/01 18:09:53;;;;;;;;;12.75;9.50;;;;;;;;5090780;28;8850;-73
2023/06/01 18:12:18;;;;;;;;;11.75;7.00;;;;;;;;5090585;28;9634;-73
2023/06/01 18:14:44;;;;;;;;;13.00;10.00;;;;;;;;5090719;28;8807;-73
2023/06/01 18:17:09;;;;;;;;;11.25;10.00;;;;;;;;5090920;28;8792;-72
2023/06/01 18:19:34;;;;;;;;;9.50;6.50;;;;;;;;5090929;28;8888;-73
2023/06/01 18:22:00;;;;;;;;;11.00;8.00;;;;;;;;5090813;28;8816;-71
2023/06/01 18:24:25;;;;;;;;;6.00;5.00;;;;;;;;5091077;28;8854;-68
2023/06/01 18:26:51;;;;;;;;;9.25;6.00;;;;;;;;5090774;28;8780;-68
2023/06/01 18:29:16;;;;;;;;;7.00;6.00;;;;;;;;5102721;28;9547;-68
2023/06/01 18:31:41;;;;;;;;;12.25;9.50;;;;;;;;5110944;28;8900;-72
2023/06/01 18:34:07;;;;;;;;;10.50;8.75;;;;;;;;5110830;28;8873;-75
2023/06/01 18:36:32;;;;;;;;;10.25;7.00;;;;;;;;5108510;28;8809;-73
2023/06/01 18:38:58;;;;;;;;;6.00;5.00;;;;;;;;5090428;28;8800;-74
2023/06/01 18:41:23;;;;;;;;;10.00;8.00;;;;;;;;5090355;28;8788;-76
2023/06/01 18:43:49;;;;;;;;;13.00;9.00;;;;;;;;5090680;28;8993;-73
2023/06/01 18:46:14;;;;;;;;;11.50;6.50;;;;;;;;5090363;28;8853;-73
2023/06/01 18:48:40;;;;;;;;;7.25;6.00;;;;;;;;5090273;28;8788;-75
2023/06/01 18:51:05;;;;;;;;;17.25;16.75;;;;;;;;5090381;28;8780;-73
2023/06/01 18:53:31;;;;;;;;;11.00;7.50;;;;;;;;5090590;28;8792;-73
2023/06/01 18:55:56;;;;;;;;;9.00;8.00;;;;;;;;5090316;28;8902;-72
2023/06/01 18:58:21;;;;;;;;;10.25;10.00;;;;;;;;5094827;28;8836;-72
2023/06/01 19:00:47;;;;;;;;;11.50;11.50;;;;;;;;5110436;28;8802;-70
2023/06/01 19:03:13;;;;;;;;;18.25;13.25;;;;;;;;5110806;28;8801;-70
2023/06/01 19:05:39;;;;;;;;;10.00;9.25;;;;;;;;5110688;28;8797;-73
2023/06/01 19:08:08;;;;;;;;;8.25;8.25;;;;;;;;5096675;28;10940;-74
2023/06/01 19:10:33;;;;;;;;;9.00;8.75;;;;;;;;5090157;28;8924;-72
2023/06/01 19:13:01;;;;;;;;;13.00;10.75;;;;;;;;5095305;28;10414;-70
2023/06/01 19:15:27;;;;;;;;;8.00;6.75;;;;;;;;5092278;28;8800;-72
2023/06/01 19:17:52;;;;;;;;;10.75;8.00;;;;;;;;5089201;28;10487;-74
2023/06/01 19:20:36;;;;;;;;;15.25;12.25;;;;;;;;5089425;28;8816;-73
2023/06/01 19:23:05;;;;;;;;;12.00;12.00;;;;;;;;5086531;28;8792;-74
2023/06/01 19:25:30;;;;;;;;;6.50;6.00;;;;;;;;5087843;28;9645;-74
2023/06/01 19:27:55;;;;;;;;;12.75;12.75;;;;;;;;5089589;28;9894;-84
2023/06/01 19:30:21;;;;;;;;;9.50;6.75;;;;;;;;5103367;28;8812;-83
2023/06/01 19:32:46;;;;;;;;;10.25;10.00;;;;;;;;5090079;28;8833;-82
2023/06/01 19:35:11;;;;;;;;;11.00;9.25;;;;;;;;5089386;28;8854;-80
2023/06/01 19:37:37;;;;;;;;;9.50;4.00;;;;;;;;5090119;28;8798;-72
2023/06/01 19:40:02;;;;;;;;;11.25;10.50;;;;;;;;5089740;28;8799;-86
2023/06/01 19:42:34;;;;;;;;;11.25;11.00;;;;;;;;5083337;28;8788;-76
2023/06/01 19:45:00;;;;;;;;;10.00;9.25;;;;;;;;5085455;28;8813;-77
2023/06/01 19:47:31;;;;;;;;;6.33;6.33;;;;;;;;5112519;28;10146;-78
2023/06/01 19:49:58;;;;;;;;;7.25;7.25;;;;;;;;5112723;27;8844;-79
2023/06/01 19:52:39;;;;;;;;;13.25;12.25;;;;;;;;5113656;28;9478;-78
2023/06/01 19:55:04;;;;;;;;;11.00;11.00;;;;;;;;5098739;28;9718;-76
2023/06/01 19:57:33;;;;;;;;;13.75;11.25;;;;;;;;5091366;28;9845;-76
2023/06/01 19:59:58;;;;;;;;;11.50;11.50;;;;;;;;5088869;28;8835;-76
2023/06/01 20:02:36;;;;;;;;;11.00;11.00;;;;;;;;5091469;28;10092;-75
2023/06/01 20:05:05;;;;;;;;;12.75;10.25;;;;;;;;5089861;28;8811;-77
2023/06/01 20:07:30;;;;;;;;;13.00;12.25;;;;;;;;5093421;28;9789;-77
2023/06/01 20:09:56;;;;;;;;;11.50;11.50;;;;;;;;5091681;28;9936;-76
2023/06/01 20:12:21;;;;;;;;;10.25;9.00;;;;;;;;5093062;28;8800;-76
2023/06/01 20:14:48;;;;;;;;;11.00;9.50;;;;;;;;5092188;28;9542;-76
2023/06/01 20:17:14;;;;;;;;;9.00;9.00;;;;;;;;5093084;28;9620;-76
2023/06/01 20:19:39;;;;;;;;;10.25;9.00;;;;;;;;5092240;28;9565;-76
2023/06/01 20:22:07;;;;;;;;;10.00;6.75;;;;;;;;5093288;28;8878;-77
2023/06/01 20:24:32;;;;;;;;;5.00;4.00;;;;;;;;5091585;28;8848;-75
2023/06/01 20:27:01;;;;;;;;;7.75;7.75;;;;;;;;5092515;28;9315;-76
2023/06/01 20:29:28;;;;;;;;;8.50;8.50;;;;;;;;5091355;28;8928;-75
2023/06/01 20:31:55;;;;;;;;;8.50;8.50;;;;;;;;5092232;28;9470;-75
2023/06/01 20:34:21;;;;;;;;;13.25;10.50;;;;;;;;5091020;28;9523;-75
2023/06/01 20:36:46;;;;;;;;;19.50;13.00;;;;;;;;5087168;28;9715;-75
2023/06/01 20:39:11;;;;;;;;;11.25;10.75;;;;;;;;5091954;28;10103;-76
2023/06/01 20:41:37;;;;;;;;;13.25;12.00;;;;;;;;5092260;28;8804;-74
2023/06/01 20:44:02;;;;;;;;;21.25;15.50;;;;;;;;5092087;28;8847;-75
2023/06/01 20:46:30;;;;;;;;;15.00;13.50;;;;;;;;5091559;28;8804;-76
2023/06/01 20:48:57;;;;;;;;;16.75;12.75;;;;;;;;5092673;28;8858;-76
2023/06/01 20:51:32;;;;;;;;;14.50;13.00;;;;;;;;5092724;28;9863;-76
2023/06/01 20:54:05;;;;;;;;;17.25;13.25;;;;;;;;5092357;28;9860;-76
2023/06/01 20:56:33;;;;;;;;;14.25;13.00;;;;;;;;5091615;28;9921;-76
2023/06/01 20:59:03;;;;;;;;;13.00;11.50;;;;;;;;5094018;28;10063;-76
2023/06/01 21:01:31;;;;;;;;;11.75;11.25;;;;;;;;5089888;28;9817;-76
2023/06/01 21:03:57;;;;;;;;;11.75;10.50;;;;;;;;5092786;28;10046;-76
2023/06/01 21:06:23;;;;;;;;;15.75;13.00;;;;;;;;5091251;28;10116;-76
2023/06/01 21:08:52;;;;;;;;;10.75;10.75;;;;;;;;5090030;28;11500;-76
2023/06/01 21:11:21;;;;;;;;;12.25;12.00;;;;;;;;5092473;28;8780;-76
2023/06/01 21:13:46;;;;;;;;;12.50;11.50;;;;;;;;5088244;28;10158;-75
2023/06/01 21:16:12;;;;;;;;;15.00;13.75;;;;;;;;5090902;28;10141;-75
2023/06/01 21:18:37;;;;;;;;;16.25;14.75;;;;;;;;5090843;28;9639;-75
2023/06/01 21:21:03;;;;;;;;;17.00;13.50;;;;;;;;5090262;28;8808;-76
2023/06/01 21:23:29;;;;;;;;;14.00;12.50;;;;;;;;5090425;28;8788;-76
2023/06/01 21:25:54;;;;;;;;;14.75;12.25;;;;;;;;5091268;28;10406;-76
2023/06/01 21:28:19;;;;;;;;;14.25;12.00;;;;;;;;5091246;28;8898;-76
2023/06/01 21:30:45;;;;;;;;;10.75;10.75;;;;;;;;5090735;28;8816;-76
2023/06/01 21:33:10;;;;;;;;;14.00;12.00;;;;;;;;5091362;28;8800;-71
2023/06/01 21:35:39;;;;;;;;;15.75;12.50;;;;;;;;5091195;28;9190;-73
2023/06/01 21:38:05;;;;;;;;;14.75;11.00;;;;;;;;5085756;28;8804;-79
2023/06/01 21:40:30;;;;;;;;;11.50;11.00;;;;;;;;5091128;28;10276;-79
2023/06/01 21:42:55;;;;;;;;;18.75;16.00;;;;;;;;5091038;28;8784;-77
2023/06/01 21:45:21;;;;;;;;;16.25;12.75;;;;;;;;5091143;28;8820;-72
2023/06/01 21:47:47;;;;;;;;;11.00;11.00;;;;;;;;5090831;28;8788;-77
2023/06/01 21:50:12;;;;;;;;;13.00;12.75;;;;;;;;5090967;28;8843;-78
2023/06/01 21:52:37;;;;;;;;;11.50;11.50;;;;;;;;5091252;28;8792;-78
2023/06/01 21:55:03;;;;;;;;;15.00;12.50;;;;;;;;5090850;28;8788;-77
2023/06/01 21:57:29;;;;;;;;;16.50;13.00;;;;;;;;5091048;28;8772;-78
2023/06/01 21:59:54;;;;;;;;;13.25;11.75;;;;;;;;5092247;28;8827;-77
2023/06/01 22:02:20;;;;;;;;;16.00;15.00;;;;;;;;5091224;28;8902;-77
2023/06/01 22:04:45;;;;;;;;;14.50;12.50;;;;;;;;5090942;28;8788;-77
2023/06/01 22:07:12;;;;;;;;;15.00;15.00;;;;;;;;5091142;28;8796;-79
2023/06/01 22:09:38;;;;;;;;;12.00;12.00;;;;;;;;5090553;28;8812;-79
2023/06/01 22:12:05;;;;;;;;;17.50;14.50;;;;;;;;5091149;28;10418;-78
2023/06/01 22:14:31;;;;;;;;;16.00;14.25;;;;;;;;5090127;28;10703;-82
2023/06/01 22:16:56;;;;;;;;;16.00;13.00;;;;;;;;5097127;28;11506;-79
2023/06/01 22:19:21;;;;;;;;;17.00;16.00;;;;;;;;5089067;28;9601;-77
2023/06/01 22:21:46;;;;;;;;;16.00;15.25;;;;;;;;5089249;28;8811;-77
2023/06/01 22:24:12;;;;;;;;;20.75;16.50;;;;;;;;5089874;28;8858;-78
2023/06/01 22:26:37;;;;;;;;;19.00;15.75;;;;;;;;5089861;28;8796;-76
2023/06/01 22:29:03;;;;;;;;;16.00;16.00;;;;;;;;5090352;28;8835;-79
2023/06/01 22:31:28;;;;;;;;;16.25;14.00;;;;;;;;5089875;28;8781;-78
2023/06/01 22:33:53;;;;;;;;;14.75;14.75;;;;;;;;5090394;28;8815;-78
2023/06/01 22:36:19;;;;;;;;;19.00;15.75;;;;;;;;5089374;28;8857;-79
2023/06/01 22:38:44;;;;;;;;;9.75;9.00;;;;;;;;5089078;28;8776;-79
2023/06/01 22:41:09;;;;;;;;;20.00;17.00;;;;;;;;5090615;28;8876;-79
2023/06/01 22:43:35;;;;;;;;;15.25;14.75;;;;;;;;5090847;28;8815;-79
2023/06/01 22:46:00;;;;;;;;;20.75;14.50;;;;;;;;5087562;28;8784;-79
2023/06/01 22:48:26;;;;;;;;;21.00;16.50;;;;;;;;5090380;28;8896;-80
2023/06/01 22:50:52;;;;;;;;;16.75;14.00;;;;;;;;5090418;28;8896;-80
2023/06/01 22:53:18;;;;;;;;;14.50;14.50;;;;;;;;5090157;28;8810;-80
2023/06/01 22:55:43;;;;;;;;;15.25;11.75;;;;;;;;5090124;28;10667;-80
2023/06/01 22:58:10;;;;;;;;;14.25;14.25;;;;;;;;5090659;28;9637;-79
2023/06/01 23:00:35;;;;;;;;;17.75;14.75;;;;;;;;5089805;28;8847;-79
2023/06/01 23:03:00;;;;;;;;;16.75;14.75;;;;;;;;5089963;28;10551;-79
2023/06/01 23:05:26;;;;;;;;;16.75;14.00;;;;;;;;5089986;28;9526;-79
2023/06/01 23:07:51;;;;;;;;;16.50;14.25;;;;;;;;5088542;28;8784;-79
2023/06/01 23:10:16;;;;;;;;;17.50;16.00;;;;;;;;5089878;28;8820;-79
2023/06/01 23:12:44;;;;;;;;;15.75;14.25;;;;;;;;5090077;28;8808;-79
2023/06/01 23:15:10;;;;;;;;;16.75;15.00;;;;;;;;5089881;28;8796;-79
2023/06/01 23:17:35;;;;;;;;;20.50;16.50;;;;;;;;5089863;28;11370;-79
2023/06/01 23:20:04;;;;;;;;;15.25;15.25;;;;;;;;5087380;28;8804;-79
2023/06/01 23:22:30;;;;;;;;;15.25;12.00;;;;;;;;5093739;28;8862;-80
2023/06/01 23:24:55;;;;;;;;;16.75;15.75;;;;;;;;5094079;28;10478;-79
2023/06/01 23:27:20;;;;;;;;;16.00;15.00;;;;;;;;5091405;28;8845;-79
2023/06/01 23:29:46;;;;;;;;;20.75;17.00;;;;;;;;5094610;28;9550;-79
2023/06/01 23:32:11;;;;;;;;;20.25;16.00;;;;;;;;5093809;28;8792;-79
2023/06/01 23:34:37;;;;;;;;;21.75;15.75;;;;;;;;5093681;28;8783;-79
2023/06/01 23:37:03;;;;;;;;;16.50;14.25;;;;;;;;5092383;28;8820;-80
2023/06/01 23:39:29;;;;;;;;;17.00;17.00;;;;;;;;5093731;28;8826;-80
2023/06/01 23:41:54;;;;;;;;;23.50;18.75;;;;;;;;5093669;28;10643;-78
2023/06/01 23:44:20;;;;;;;;;17.75;16.50;;;;;;;;5092542;28;10846;-79
2023/06/01 23:46:46;;;;;;;;;23.50;15.25;;;;;;;;5093760;28;8803;-79
2023/06/01 23:49:11;;;;;;;;;18.75;16.75;;;;;;;;5094105;28;10836;-79
2023/06/01 23:51:37;;;;;;;;;21.00;20.00;;;;;;;;5094228;28;8795;-77
2023/06/01 23:54:02;;;;;;;;;18.50;16.75;;;;;;;;5094009;28;8820;-77
2023/06/01 23:56:28;;;;;;;;;15.75;15.75;;;;;;;;5094208;28;8872;-77
2023/06/01 23:58:53;;;;;;;;;20.50;20.00;;;;;;;;5101441;28;8813;-77
